createdAt,value
2018-12-16T00:00:35.827Z,79.30
2018-12-16T00:03:11.559Z,78.90
2018-12-16T00:05:47.833Z,78.60
2018-12-16T00:08:23.881Z,78.90
2018-12-16T00:11:00.075Z,79.10
2018-12-16T00:13:36.277Z,78.30
2018-12-16T00:16:17.098Z,78.10
2018-12-16T00:18:49.435Z,77.90
2018-12-16T00:21:21.896Z,77.70
2018-12-16T00:23:57.942Z,78.20
2018-12-16T00:27:38.204Z,78.40
2018-12-16T00:30:14.081Z,78.80
2018-12-16T00:32:50.009Z,78.40
2018-12-16T00:35:22.360Z,78.10
2018-12-16T00:37:58.537Z,78.90
2018-12-16T00:40:34.804Z,79.20
2018-12-16T00:43:10.720Z,80.00
2018-12-16T00:45:46.916Z,79.40
2018-12-16T00:48:23.153Z,80.00
2018-12-16T00:50:59.281Z,80.70
2018-12-16T00:53:35.320Z,80.40
2018-12-16T00:56:11.340Z,80.20
2018-12-16T00:58:47.450Z,81.60
2018-12-16T01:01:23.356Z,81.20
2018-12-16T01:03:59.408Z,81.60
2018-12-16T01:06:35.729Z,81.30
2018-12-16T01:09:11.760Z,82.40
2018-12-16T01:11:47.837Z,81.80
2018-12-16T01:14:23.833Z,82.50
2018-12-16T01:17:00.057Z,82.40
2018-12-16T01:19:35.945Z,82.60
2018-12-16T01:22:11.966Z,82.80
2018-12-16T01:24:48.115Z,82.90
2018-12-16T01:27:24.149Z,83.40
2018-12-16T01:30:00.232Z,83.10
2018-12-16T01:32:32.493Z,83.90
2018-12-16T01:35:08.797Z,83.70
2018-12-16T01:37:44.922Z,84.10
2018-12-16T01:40:21.149Z,84.10
2018-12-16T01:42:53.402Z,84.20
2018-12-16T01:45:29.549Z,84.80
2018-12-16T01:48:05.517Z,84.70
2018-12-16T01:50:41.749Z,85.40
2018-12-16T01:53:17.939Z,85.30
2018-12-16T01:55:54.209Z,85.80
2018-12-16T01:58:30.224Z,86.30
2018-12-16T02:01:06.428Z,86.80
2018-12-16T02:03:42.652Z,87.10
2018-12-16T02:06:18.950Z,87.10
2018-12-16T02:08:55.001Z,87.20
2018-12-16T02:11:30.977Z,87.50
2018-12-16T02:14:07.233Z,87.90
2018-12-16T02:16:39.561Z,88.20
2018-12-16T02:19:15.765Z,88.20
2018-12-16T02:21:51.907Z,88.20
2018-12-16T02:24:27.973Z,88.10
2018-12-16T02:27:04.292Z,88.10
2018-12-16T02:29:40.577Z,87.90
2018-12-16T02:32:16.466Z,88.10
2018-12-16T02:34:52.605Z,88.10
2018-12-16T02:37:28.642Z,88.40
2018-12-16T02:40:04.813Z,88.40
2018-12-16T02:42:40.890Z,88.30
2018-12-16T02:45:17.040Z,88.40
2018-12-16T02:47:53.309Z,89.20
2018-12-16T02:50:29.458Z,89.20
2018-12-16T02:53:05.752Z,89.60
2018-12-16T02:55:38.184Z,88.90
2018-12-16T02:58:10.489Z,88.80
2018-12-16T03:00:46.952Z,88.60
2018-12-16T03:03:22.821Z,88.60
2018-12-16T03:05:58.829Z,88.30
2018-12-16T03:08:34.938Z,89.00
2018-12-16T03:11:07.170Z,88.10
2018-12-16T03:13:43.402Z,87.90
2018-12-16T03:16:19.520Z,88.00
2018-12-16T03:18:55.816Z,87.90
2018-12-16T03:21:31.814Z,88.30
2018-12-16T03:24:07.982Z,87.90
2018-12-16T03:26:44.160Z,88.10
2018-12-16T03:29:20.302Z,88.20
2018-12-16T03:31:56.214Z,87.00
2018-12-16T03:34:32.355Z,88.40
2018-12-16T03:37:08.610Z,88.90
2018-12-16T03:39:44.838Z,89.20
2018-12-16T03:42:20.880Z,88.70
2018-12-16T03:50:04.151Z,89.10
2018-12-16T03:52:40.009Z,89.50
2018-12-16T03:55:15.811Z,89.30
2018-12-16T03:57:52.001Z,89.10
2018-12-16T04:00:28.087Z,89.20
2018-12-16T04:03:04.152Z,89.30
2018-12-16T04:05:40.042Z,89.70
2018-12-16T04:08:16.136Z,89.90
2018-12-16T04:10:52.121Z,89.80
2018-12-16T04:13:28.223Z,89.60
2018-12-16T04:16:04.248Z,89.80
2018-12-16T04:18:40.305Z,89.70
2018-12-16T04:21:12.573Z,89.80
2018-12-16T04:23:48.664Z,89.90
2018-12-16T04:26:24.877Z,90.00
2018-12-16T04:29:01.078Z,90.00
2018-12-16T04:31:37.108Z,90.00
2018-12-16T04:34:13.284Z,90.10
2018-12-16T04:36:49.492Z,90.10
2018-12-16T04:39:25.658Z,89.90
2018-12-16T04:42:01.496Z,89.70
2018-12-16T04:44:37.784Z,89.50
2018-12-16T04:47:13.954Z,89.40
2018-12-16T04:49:50.195Z,89.60
2018-12-16T05:15:28.201Z,88.90
2018-12-16T05:18:04.233Z,88.60
2018-12-16T05:20:40.215Z,88.00
2018-12-16T05:23:16.357Z,87.90
2018-12-16T05:25:52.386Z,88.10
2018-12-16T05:28:28.412Z,88.20
2018-12-16T05:31:00.748Z,88.70
2018-12-16T05:33:37.329Z,88.70
2018-12-16T05:36:12.956Z,88.90
2018-12-16T05:38:45.295Z,88.70
2018-12-16T05:41:21.220Z,88.90
2018-12-16T05:43:57.241Z,89.30
2018-12-16T05:46:29.500Z,89.50
2018-12-16T05:49:05.541Z,89.60
2018-12-16T05:51:41.637Z,89.70
2018-12-16T05:54:17.784Z,90.00
2018-12-16T05:56:53.800Z,90.00
2018-12-16T05:59:30.067Z,89.20
2018-12-16T06:02:02.442Z,88.20
2018-12-16T06:04:38.480Z,87.10
2018-12-16T06:07:14.372Z,88.40
2018-12-16T06:09:50.666Z,88.80
2018-12-16T06:12:26.881Z,87.60
2018-12-16T06:15:03.159Z,88.00
2018-12-16T06:17:39.112Z,88.80
2018-12-16T06:20:15.281Z,88.60
2018-12-16T06:22:51.417Z,88.20
2018-12-16T06:25:27.620Z,88.30
2018-12-16T06:28:03.868Z,88.00
2018-12-16T06:30:40.207Z,88.00
2018-12-16T06:33:16.304Z,87.20
2018-12-16T06:35:52.480Z,87.80
2018-12-16T06:38:28.571Z,88.20
2018-12-16T06:41:04.774Z,88.60
2018-12-16T06:43:40.904Z,88.70
2018-12-16T06:46:17.061Z,87.90
2018-12-16T06:48:53.096Z,87.30
2018-12-16T06:51:29.280Z,87.10
2018-12-16T06:54:02.649Z,87.10
2018-12-16T06:56:38.848Z,86.30
2018-12-16T06:59:14.980Z,85.80
2018-12-16T07:01:47.353Z,85.60
2018-12-16T07:04:23.709Z,85.70
2018-12-16T07:06:59.592Z,85.90
2018-12-16T07:09:35.607Z,85.20
2018-12-16T07:12:11.755Z,85.10
2018-12-16T07:14:47.704Z,85.20
2018-12-16T07:17:24.212Z,85.90
2018-12-16T07:20:00.304Z,85.90
2018-12-16T07:22:36.385Z,84.70
2018-12-16T07:25:12.561Z,84.90
2018-12-16T07:27:48.741Z,84.90
2018-12-16T07:30:24.820Z,84.50
2018-12-16T07:33:01.025Z,85.30
2018-12-16T07:35:37.066Z,84.40
2018-12-16T07:38:13.471Z,84.80
2018-12-16T07:40:49.493Z,84.90
2018-12-16T07:43:25.651Z,85.00
2018-12-16T07:46:01.680Z,85.00
2018-12-16T07:48:34.363Z,84.10
2018-12-16T07:51:10.076Z,84.20
2018-12-16T07:53:42.523Z,84.50
2018-12-16T07:56:18.719Z,84.20
2018-12-16T07:58:54.982Z,84.10
2018-12-16T08:01:31.149Z,84.50
2018-12-16T08:04:07.349Z,83.80
2018-12-16T08:06:43.593Z,83.50
2018-12-16T08:09:19.707Z,83.50
2018-12-16T08:11:55.887Z,84.10
2018-12-16T08:14:32.097Z,84.30
2018-12-16T08:17:08.171Z,85.30
2018-12-16T08:19:44.177Z,83.70
2018-12-16T08:27:22.404Z,83.10
2018-12-16T08:29:58.000Z,82.80
2018-12-16T08:32:34.117Z,83.90
2018-12-16T08:35:10.014Z,83.90
2018-12-16T08:37:49.345Z,83.90
2018-12-16T08:40:21.700Z,84.30
2018-12-16T08:42:57.779Z,83.70
2018-12-16T08:45:33.789Z,84.00
2018-12-16T08:48:09.833Z,84.70
2018-12-16T08:50:46.109Z,83.60
2018-12-16T08:53:22.035Z,84.30
2018-12-16T08:55:58.064Z,83.60
2018-12-16T08:58:34.129Z,84.20
2018-12-16T09:01:10.390Z,84.20
2018-12-16T09:03:47.076Z,84.40
2018-12-16T09:06:22.723Z,84.90
2018-12-16T09:08:59.244Z,85.00
2018-12-16T09:11:35.065Z,84.60
2018-12-16T09:14:11.216Z,84.10
2018-12-16T09:16:47.328Z,83.30
2018-12-16T09:19:23.176Z,84.20
2018-12-16T09:21:59.120Z,84.50
2018-12-16T09:24:37.469Z,84.20
2018-12-16T09:27:13.281Z,83.60
2018-12-16T09:29:49.430Z,83.30
2018-12-16T09:32:25.590Z,82.60
2018-12-16T09:34:57.852Z,82.70
2018-12-16T09:37:33.992Z,83.20
2018-12-16T09:40:10.092Z,83.10
2018-12-16T09:42:46.381Z,82.00
2018-12-16T09:45:22.624Z,82.70
2018-12-16T09:47:58.868Z,83.20
2018-12-16T09:50:31.306Z,82.50
2018-12-16T09:53:07.582Z,77.10
2018-12-16T09:55:43.850Z,73.00
2018-12-16T09:58:20.197Z,72.90
2018-12-16T10:00:56.132Z,74.90
2018-12-16T10:03:31.981Z,76.20
2018-12-16T10:06:08.424Z,76.90
2018-12-16T10:08:44.316Z,77.60
2018-12-16T10:11:20.320Z,78.30
2018-12-16T10:13:56.369Z,72.00
2018-12-16T10:16:32.759Z,70.20
2018-12-16T10:19:08.920Z,70.60
2018-12-16T10:21:45.117Z,72.40
2018-12-16T10:24:21.553Z,75.00
2018-12-16T10:26:57.340Z,75.00
2018-12-16T10:29:33.489Z,76.40
2018-12-16T10:32:05.900Z,77.70
2018-12-16T10:34:38.458Z,78.30
2018-12-16T10:44:51.050Z,79.70
2018-12-16T10:47:27.048Z,79.50
2018-12-16T11:18:10.600Z,78.70
2018-12-16T11:20:46.767Z,78.90
2018-12-16T11:23:22.846Z,78.70
2018-12-16T11:36:13.370Z,78.20
2018-12-16T11:38:49.401Z,79.50
2018-12-16T12:17:13.952Z,78.50
2018-12-16T12:19:49.974Z,78.10
2018-12-16T12:22:26.225Z,78.10
2018-12-16T12:25:02.264Z,77.60
2018-12-16T12:27:38.513Z,78.00
2018-12-16T12:30:14.694Z,78.20
2018-12-16T12:32:50.796Z,78.50
2018-12-16T12:35:26.979Z,78.50
2018-12-16T12:38:03.208Z,78.80
2018-12-16T12:40:39.433Z,78.30
2018-12-16T12:43:15.642Z,78.70
2018-12-16T12:45:51.610Z,78.70
2018-12-16T12:48:27.861Z,78.20
2018-12-16T12:51:04.082Z,79.10
2018-12-16T12:53:40.239Z,79.70
2018-12-16T12:56:16.536Z,78.70
2018-12-16T12:58:52.442Z,77.40
2018-12-16T13:01:28.658Z,77.10
2018-12-16T13:04:04.889Z,76.60
2018-12-16T13:06:37.480Z,72.20
2018-12-16T13:09:13.328Z,74.20
2018-12-16T13:11:45.603Z,75.20
2018-12-16T13:14:22.260Z,75.40
2018-12-16T13:17:01.398Z,74.80
2018-12-16T13:24:57.856Z,74.50
2018-12-16T13:27:35.185Z,74.60
2018-12-16T13:30:14.164Z,73.00
2018-12-16T13:32:50.193Z,72.30
2018-12-16T13:35:26.467Z,72.40
2018-12-16T13:38:03.221Z,72.00
2018-12-16T13:40:40.005Z,71.90
2018-12-16T13:43:12.448Z,71.80
2018-12-16T13:45:49.338Z,72.00
2018-12-16T13:48:26.476Z,71.80
2018-12-16T13:51:00.345Z,71.80
2018-12-16T13:53:40.026Z,69.30
2018-12-16T13:56:16.386Z,70.10
2018-12-16T13:58:52.377Z,68.20
2018-12-16T14:01:29.224Z,67.10
2018-12-16T14:04:02.457Z,66.80
2018-12-16T14:06:35.207Z,66.50
2018-12-16T14:09:11.270Z,67.00
2018-12-16T14:11:47.568Z,68.00
2018-12-16T14:14:24.273Z,68.50
2018-12-16T14:17:01.610Z,68.30
2018-12-16T14:19:38.067Z,67.20
2018-12-16T14:22:14.407Z,67.20
2018-12-16T14:24:51.849Z,67.60
2018-12-16T14:37:41.307Z,64.70
2018-12-16T14:40:21.393Z,66.00
2018-12-16T14:42:58.425Z,65.40
2018-12-16T14:45:35.749Z,66.20
2018-12-16T14:48:11.769Z,65.30
2018-12-16T14:50:49.000Z,65.90
2018-12-16T14:53:26.175Z,66.80
2018-12-16T14:56:03.596Z,67.40
2018-12-16T14:58:40.353Z,67.70
2018-12-16T15:01:16.504Z,67.30
2018-12-16T15:03:52.466Z,67.20
2018-12-16T15:06:30.160Z,66.60
2018-12-16T15:09:09.010Z,67.10
2018-12-16T15:11:45.497Z,66.40
2018-12-16T15:14:21.185Z,66.80
2018-12-16T15:16:53.785Z,67.20
2018-12-16T15:19:30.418Z,66.80
2018-12-16T15:22:03.929Z,68.30
2018-12-16T15:24:40.880Z,67.30
2018-12-16T15:27:13.416Z,67.40
2018-12-16T15:29:49.797Z,66.70
2018-12-16T15:32:27.038Z,67.60
2018-12-16T15:35:04.194Z,68.70
2018-12-16T15:37:41.300Z,68.50
2018-12-16T15:40:18.509Z,69.20
2018-12-16T15:42:55.832Z,69.10
2018-12-16T15:48:01.757Z,68.70
2018-12-16T15:50:38.174Z,68.80
2018-12-16T15:53:14.228Z,68.30
2018-12-16T15:55:50.196Z,68.00
2018-12-16T15:58:26.450Z,68.00
2018-12-16T16:23:57.240Z,69.40
2018-12-16T16:26:33.540Z,69.50
2018-12-16T16:29:09.618Z,68.90
2018-12-16T16:31:46.010Z,69.20
2018-12-16T16:34:21.923Z,69.80
2018-12-16T16:36:57.995Z,70.10
2018-12-16T16:39:34.243Z,68.50
2018-12-16T16:42:10.625Z,63.00
2018-12-16T16:44:46.749Z,60.70
2018-12-16T16:47:22.776Z,61.10
2018-12-16T16:49:58.845Z,62.80
2018-12-16T16:52:35.179Z,64.70
2018-12-16T16:55:11.243Z,65.50
2018-12-16T16:57:47.922Z,66.10
2018-12-16T17:00:24.253Z,66.40
2018-12-16T17:03:00.340Z,67.20
2018-12-16T17:05:36.348Z,67.90
2018-12-16T17:08:08.733Z,68.80
2018-12-16T17:10:44.988Z,69.10
2018-12-16T17:13:21.251Z,69.30
2018-12-16T17:15:57.337Z,69.60
2018-12-16T17:18:34.388Z,70.30
2018-12-16T17:21:10.680Z,70.70
2018-12-16T17:23:46.982Z,70.80
2018-12-16T17:26:29.796Z,70.50
2018-12-16T17:29:01.550Z,70.00
2018-12-16T17:31:38.474Z,69.80
2018-12-16T17:34:11.273Z,70.30
2018-12-16T17:36:47.212Z,70.30
2018-12-16T17:39:23.381Z,69.90
2018-12-16T17:41:59.465Z,69.80
2018-12-16T17:44:35.802Z,69.40
2018-12-16T17:47:11.848Z,69.60
2018-12-16T17:49:47.862Z,69.80
2018-12-16T17:52:24.042Z,70.00
2018-12-16T17:55:00.196Z,70.10
2018-12-16T17:57:36.184Z,70.10
2018-12-16T18:00:12.713Z,70.50
2018-12-16T18:02:48.489Z,70.30
2018-12-16T18:05:24.856Z,70.00
2018-12-16T18:08:00.973Z,70.20
2018-12-16T18:10:37.112Z,70.50
2018-12-16T18:13:13.389Z,70.50
2018-12-16T18:15:49.560Z,70.90
2018-12-16T18:18:25.796Z,71.20
2018-12-16T18:21:01.982Z,71.40
2018-12-16T18:23:38.136Z,71.20
2018-12-16T18:26:10.554Z,71.90
2018-12-16T18:28:46.685Z,72.40
2018-12-16T18:31:23.911Z,72.70
2018-12-16T18:34:00.050Z,72.50
2018-12-16T18:36:36.260Z,73.00
2018-12-16T18:39:12.720Z,73.30
2018-12-16T18:41:48.817Z,73.20
2018-12-16T18:44:24.706Z,73.60
2018-12-16T18:47:00.798Z,74.00
2018-12-16T18:49:37.065Z,74.00
2018-12-16T18:52:13.381Z,74.00
2018-12-16T18:54:49.353Z,74.50
2018-12-16T18:57:25.611Z,73.90
2018-12-16T19:00:01.658Z,74.00
2018-12-16T19:02:37.647Z,73.30
2018-12-16T19:05:13.734Z,73.30
2018-12-16T19:07:49.999Z,73.40
2018-12-16T19:10:25.952Z,73.30
2018-12-16T19:13:02.637Z,72.80
2018-12-16T19:15:42.537Z,72.90
2018-12-16T19:18:19.430Z,72.90
2018-12-16T19:20:59.429Z,73.60
2018-12-16T19:23:35.849Z,74.10
2018-12-16T19:26:25.179Z,74.10
2018-12-16T19:28:57.951Z,73.90
2018-12-16T19:31:35.863Z,73.70
2018-12-16T19:34:12.955Z,73.70
2018-12-16T19:36:52.253Z,73.50
2018-12-16T19:39:24.849Z,74.30
2018-12-16T19:42:04.505Z,75.70
2018-12-16T19:44:41.892Z,76.10
2018-12-16T19:47:21.585Z,76.50
2018-12-16T19:49:58.390Z,75.80
2018-12-16T19:52:31.042Z,76.00
2018-12-16T19:55:08.193Z,76.00
2018-12-16T19:57:45.042Z,76.00
2018-12-16T20:00:22.375Z,75.40
2018-12-16T20:02:58.473Z,75.00
2018-12-16T20:05:40.088Z,75.00
2018-12-16T20:08:16.635Z,74.70
2018-12-16T20:10:56.779Z,73.80
2018-12-16T20:13:29.761Z,73.90
2018-12-16T20:16:06.509Z,74.20
2018-12-16T20:18:42.709Z,74.60
2018-12-16T20:21:19.401Z,74.80
2018-12-16T20:23:56.513Z,74.90
2018-12-16T20:26:32.667Z,74.20
2018-12-16T20:29:08.825Z,74.30
2018-12-16T20:31:44.936Z,74.50
2018-12-16T20:34:21.196Z,74.60
2018-12-16T20:36:57.509Z,75.20
2018-12-16T20:39:33.892Z,75.00
2018-12-16T20:42:14.424Z,74.60
2018-12-16T20:44:50.618Z,75.20
2018-12-16T20:47:27.105Z,75.60
2018-12-16T20:50:05.238Z,76.20
2018-12-16T20:52:44.875Z,77.00
2018-12-16T20:55:21.315Z,77.30
2018-12-16T20:58:01.634Z,76.90
2018-12-16T21:00:37.950Z,77.50
2018-12-16T21:03:27.478Z,77.50
2018-12-16T21:06:03.962Z,77.30
2018-12-16T21:08:43.054Z,77.30
2018-12-16T21:12:23.117Z,76.80
2018-12-16T21:17:11.744Z,76.40
2018-12-16T21:19:50.881Z,76.50
2018-12-16T21:22:30.252Z,77.00
2018-12-16T21:25:06.464Z,77.00
2018-12-16T21:27:48.444Z,77.10
2018-12-16T21:30:24.932Z,77.70
2018-12-16T21:33:04.840Z,77.60
2018-12-16T21:35:38.185Z,77.70
2018-12-16T21:51:18.255Z,78.30
2018-12-16T22:01:42.407Z,79.10
2018-12-16T22:04:14.649Z,78.30
2018-12-16T22:06:53.653Z,77.80
2018-12-16T22:09:29.918Z,77.50
2018-12-16T22:12:10.258Z,77.80
2018-12-16T22:14:44.113Z,77.20
2018-12-16T22:17:23.297Z,76.50
2018-12-16T22:19:59.189Z,76.40
2018-12-16T22:22:38.434Z,76.60
2018-12-16T22:25:16.058Z,76.80
2018-12-16T22:27:52.932Z,76.00
2018-12-16T22:30:25.872Z,75.40
2018-12-16T22:33:02.864Z,75.10
2018-12-16T22:35:38.965Z,75.60
2018-12-16T22:38:15.175Z,75.30
2018-12-16T22:40:51.985Z,75.30
2018-12-16T22:43:28.242Z,74.50
2018-12-16T22:46:04.690Z,75.40
2018-12-16T22:48:43.740Z,75.50
2018-12-16T22:51:20.214Z,75.80
2018-12-16T22:53:59.995Z,76.00
2018-12-16T22:56:33.210Z,75.80
2018-12-16T22:59:14.450Z,75.70
2018-12-16T23:01:48.424Z,75.80
2018-12-16T23:04:27.893Z,75.30
2018-12-16T23:07:00.381Z,75.80
2018-12-16T23:09:37.036Z,75.60
2018-12-16T23:12:13.077Z,75.80
2018-12-16T23:14:48.896Z,75.60
2018-12-16T23:17:25.145Z,75.60
2018-12-16T23:20:02.757Z,74.80
2018-12-16T23:22:38.410Z,74.50
2018-12-16T23:25:14.924Z,74.80
2018-12-16T23:27:54.269Z,75.20
2018-12-16T23:30:26.144Z,75.50
2018-12-16T23:33:02.466Z,75.50
2018-12-16T23:35:41.653Z,75.30
2018-12-16T23:38:17.991Z,74.70
2018-12-16T23:41:07.550Z,74.70
2018-12-16T23:43:40.125Z,74.30
2018-12-16T23:46:16.286Z,74.00
2018-12-16T23:48:53.521Z,74.30
2018-12-16T23:51:32.626Z,74.20
2018-12-16T23:54:09.133Z,74.10
2018-12-16T23:56:46.288Z,74.50
2018-12-16T23:59:23.955Z,74.50
